Time;durP1;ratioP1;P1;durP2;ratioP2;P2;SDS_P1;SDS_P2;PMS_P1;PMS_P2;Temp;Humidity;BMP_temperature;BMP_pressure;BME280_temperature;BME280_humidity;BME280_pressure;Samples;Min_cycle;Max_cycle;Signal;HPM_P1;HPM_P2
2024/04/01 00:01:35;;;;;;;0.95;0.25;;;14.90;73.00;;;;;;2310863;56;21020;-67
2024/04/01 00:04:03;;;;;;;0.50;0.20;;;14.90;73.80;;;;;;2310078;55;20932;-68
2024/04/01 00:06:29;;;;;;;1.33;0.20;;;14.90;73.10;;;;;;2310587;55;21811;-68
2024/04/01 00:08:58;;;;;;;0.25;0.10;;;14.90;73.20;;;;;;2309866;55;21796;-68
2024/04/01 00:11:26;;;;;;;0.62;0.20;;;14.80;73.20;;;;;;2310176;55;20971;-68
2024/04/01 00:13:53;;;;;;;0.30;0.20;;;14.80;73.30;;;;;;2310014;55;21137;-68
2024/04/01 00:16:23;;;;;;;0.37;0.22;;;14.90;73.40;;;;;;2310440;56;21059;-67
2024/04/01 00:18:49;;;;;;;0.50;0.10;;;14.80;73.20;;;;;;2309950;55;21545;-69
2024/04/01 00:21:15;;;;;;;0.10;0.10;;;14.80;73.20;;;;;;2310154;55;21075;-67
2024/04/01 00:23:43;;;;;;;0.82;0.20;;;14.80;73.30;;;;;;2309694;56;21916;-68
2024/04/01 00:26:13;;;;;;;0.25;0.10;;;14.80;74.00;;;;;;2310116;55;20951;-67
2024/04/01 00:28:39;;;;;;;0.20;0.17;;;14.80;73.30;;;;;;2310482;56;21738;-68
2024/04/01 00:31:07;;;;;;;0.45;0.20;;;14.90;73.40;;;;;;2308100;55;21009;-68
2024/04/01 00:33:33;;;;;;;0.35;0.20;;;14.80;73.10;;;;;;2290224;56;20912;-68
2024/04/01 00:35:59;;;;;;;0.75;0.10;;;14.80;73.20;;;;;;2302455;56;21023;-68
2024/04/01 00:38:25;;;;;;;0.37;0.10;;;14.70;73.10;;;;;;2273354;56;21307;-69
2024/04/01 00:40:52;;;;;;;1.00;0.20;;;14.70;73.20;;;;;;2306874;55;21291;-68
2024/04/01 00:43:19;;;;;;;0.10;0.10;;;14.70;73.20;;;;;;2310008;56;20979;-68
2024/04/01 00:45:46;;;;;;;1.20;0.30;;;14.70;73.20;;;;;;2309926;55;21044;-67
2024/04/01 00:48:15;;;;;;;0.50;0.10;;;14.70;73.10;;;;;;2310160;55;21334;-67
2024/04/01 00:50:44;;;;;;;0.40;0.15;;;14.70;73.10;;;;;;2309619;56;20980;-68
2024/04/01 00:53:10;;;;;;;0.40;0.10;;;14.70;73.10;;;;;;2309827;56;21043;-68
2024/04/01 00:55:41;;;;;;;1.75;0.10;;;14.70;73.10;;;;;;2309544;55;21015;-68
2024/04/01 00:58:07;;;;;;;0.52;0.10;;;14.70;73.10;;;;;;2309750;55;20995;-67
2024/04/01 01:00:33;;;;;;;0.40;0.15;;;14.70;73.30;;;;;;2310644;56;21728;-67
2024/04/01 01:03:00;;;;;;;0.52;0.10;;;14.70;73.30;;;;;;2310418;55;20983;-68
2024/04/01 01:05:27;;;;;;;0.77;0.20;;;14.60;73.20;;;;;;2310905;55;21090;-66
2024/04/01 01:07:54;;;;;;;0.77;0.10;;;14.60;73.30;;;;;;2310732;55;21067;-68
2024/04/01 01:10:24;;;;;;;0.40;0.10;;;14.70;73.40;;;;;;2310939;56;21035;-67
2024/04/01 01:12:50;;;;;;;0.40;0.20;;;14.60;73.00;;;;;;2310980;56;21082;-68
2024/04/01 01:15:17;;;;;;;0.40;0.20;;;14.60;73.10;;;;;;2310981;55;21082;-68
2024/04/01 01:17:45;;;;;;;0.00;0.00;;;14.60;73.20;;;;;;2311159;56;20928;-66
2024/04/01 01:20:14;;;;;;;3.17;0.50;;;14.60;73.30;;;;;;2310557;56;21473;-67
2024/04/01 01:22:45;;;;;;;0.10;0.10;;;14.60;73.40;;;;;;2310782;55;20951;-68
2024/04/01 01:25:11;;;;;;;0.30;0.20;;;14.60;73.30;;;;;;2288021;55;20963;-69
2024/04/01 01:27:41;;;;;;;0.22;0.13;;;14.60;73.50;;;;;;2311032;56;20967;-69
2024/04/01 01:30:16;;;;;;;0.10;0.10;;;14.60;73.50;;;;;;2289024;56;20934;-66
2024/04/01 01:32:47;;;;;;;0.22;0.20;;;14.60;73.40;;;;;;2313338;56;20952;-68
2024/04/01 01:35:20;;;;;;;0.80;0.20;;;14.60;73.30;;;;;;2310654;56;21311;-67
2024/04/01 01:37:50;;;;;;;0.25;0.10;;;14.60;73.20;;;;;;2310390;56;20947;-67
2024/04/01 01:40:16;;;;;;;0.57;0.20;;;14.60;73.40;;;;;;2310729;56;21489;-69
2024/04/01 01:42:42;;;;;;;0.13;0.10;;;14.60;73.40;;;;;;2311039;55;20972;-68
2024/04/01 01:45:08;;;;;;;0.25;0.20;;;14.60;73.40;;;;;;2311002;55;20963;-68
2024/04/01 01:47:35;;;;;;;0.57;0.20;;;14.60;73.40;;;;;;2310322;55;21074;-68
2024/04/01 01:50:06;;;;;;;1.35;0.22;;;14.50;73.30;;;;;;2311217;55;21055;-68
2024/04/01 01:52:32;;;;;;;0.28;0.05;;;14.50;73.20;;;;;;2311157;56;21565;-68
2024/04/01 01:54:58;;;;;;;0.90;0.20;;;14.50;73.20;;;;;;2310703;55;20939;-68
2024/04/01 01:57:25;;;;;;;0.98;0.20;;;14.50;72.90;;;;;;2298338;56;21065;-68
2024/04/01 01:59:51;;;;;;;0.37;0.15;;;14.50;72.80;;;;;;2300906;55;21761;-67
2024/04/01 02:02:18;;;;;;;0.82;0.20;;;14.50;72.70;;;;;;2310686;55;20992;-68
2024/04/01 02:04:44;;;;;;;0.65;0.20;;;14.50;72.70;;;;;;2311487;55;21409;-67
2024/04/01 02:07:11;;;;;;;0.40;0.20;;;14.40;72.60;;;;;;2311579;55;21019;-68
2024/04/01 02:09:37;;;;;;;0.47;0.20;;;14.40;72.80;;;;;;2311493;55;20982;-68
2024/04/01 02:12:09;;;;;;;0.17;0.17;;;14.50;73.00;;;;;;2311228;56;20959;-67
2024/04/01 02:14:38;;;;;;;;;;;14.40;73.10;;;;;;2314896;56;21585;-67
2024/04/01 02:17:05;;;;;;;0.17;0.10;;;14.40;72.00;;;;;;2311358;56;20116;-68
2024/04/01 02:19:32;;;;;;;0.65;0.10;;;14.40;73.20;;;;;;2311926;56;20928;-68
2024/04/01 02:21:59;;;;;;;0.10;0.10;;;14.40;73.30;;;;;;2310891;55;20992;-68
2024/04/01 02:24:26;;;;;;;0.30;0.20;;;14.30;73.20;;;;;;2310967;56;21107;-67
2024/04/01 02:26:53;;;;;;;1.48;0.22;;;14.30;73.20;;;;;;2307578;55;21037;-68
2024/04/01 02:29:19;;;;;;;0.35;0.20;;;14.30;73.20;;;;;;2292134;55;20944;-67
2024/04/01 02:31:47;;;;;;;0.20;0.10;;;14.30;73.10;;;;;;2294911;55;21037;-67
2024/04/01 02:34:17;;;;;;;1.30;0.17;;;14.30;73.10;;;;;;2301957;56;21312;-67
2024/04/01 02:36:43;;;;;;;0.45;0.20;;;14.30;73.10;;;;;;2291314;56;21509;-68
2024/04/01 02:39:18;;;;;;;0.10;0.10;;;14.30;73.40;;;;;;2287605;56;21038;-67
2024/04/01 02:41:46;;;;;;;0.20;0.10;;;14.30;73.40;;;;;;2288276;56;21020;-67
2024/04/01 02:44:13;;;;;;;2.10;0.25;;;14.30;73.30;;;;;;2310768;56;20980;-68
2024/04/01 02:46:40;;;;;;;0.37;0.20;;;14.20;73.30;;;;;;2311119;55;21161;-68
2024/04/01 02:49:06;;;;;;;1.17;0.30;;;14.30;73.40;;;;;;2310679;56;21003;-69
2024/04/01 02:51:34;;;;;;;0.80;0.20;;;14.30;73.40;;;;;;2310710;55;21039;-67
2024/04/01 02:54:00;;;;;;;2.30;0.37;;;14.30;73.20;;;;;;2310973;56;20924;-67
2024/04/01 02:56:28;;;;;;;1.00;0.35;;;14.20;73.20;;;;;;2311178;56;20940;-67
2024/04/01 02:59:01;;;;;;;0.80;0.30;;;14.20;73.20;;;;;;2311463;56;21019;-67
2024/04/01 03:01:27;;;;;;;0.65;0.20;;;14.20;73.30;;;;;;2310677;56;21956;-67
2024/04/01 03:03:59;;;;;;;0.40;0.20;;;14.20;73.40;;;;;;2288211;56;21333;-69
2024/04/01 03:06:28;;;;;;;1.40;0.20;;;14.20;73.40;;;;;;2311810;56;20952;-67
2024/04/01 03:08:55;;;;;;;0.47;0.20;;;14.20;73.60;;;;;;2311122;56;20995;-68
2024/04/01 03:11:21;;;;;;;0.47;0.30;;;14.10;73.60;;;;;;2301211;55;20993;-67
2024/04/01 03:13:50;;;;;;;0.65;0.22;;;14.20;73.70;;;;;;2289836;55;20957;-68
2024/04/01 03:16:18;;;;;;;0.82;0.30;;;14.10;73.60;;;;;;2269304;56;20964;-69
2024/04/01 03:18:44;;;;;;;1.00;0.40;;;14.20;73.80;;;;;;2299565;56;21015;-68
2024/04/01 03:21:11;;;;;;;0.95;0.30;;;14.20;73.80;;;;;;2311628;55;21405;-69
2024/04/01 03:23:37;;;;;;;0.90;0.40;;;14.20;73.80;;;;;;2311416;55;22188;-67
2024/04/01 03:26:04;;;;;;;1.75;0.52;;;14.20;73.90;;;;;;2286672;56;21617;-67
2024/04/01 03:28:30;;;;;;;0.55;0.28;;;14.20;73.90;;;;;;2310709;55;21212;-68
2024/04/01 03:31:02;;;;;;;0.65;0.30;;;14.20;73.90;;;;;;2310365;56;21010;-67
2024/04/01 03:33:28;;;;;;;0.98;0.40;;;14.20;73.90;;;;;;2293408;55;20953;-69
2024/04/01 03:35:57;;;;;;;0.95;0.20;;;14.20;73.90;;;;;;2307432;56;20959;-67
2024/04/01 03:38:24;;;;;;;2.05;0.30;;;14.20;74.70;;;;;;2311014;55;21002;-67
2024/04/01 03:40:53;;;;;;;1.12;0.40;;;14.20;74.00;;;;;;2311215;56;21023;-68
2024/04/01 03:43:22;;;;;;;0.55;0.30;;;14.20;74.00;;;;;;2311299;55;20995;-67
2024/04/01 03:46:01;;;;;;;0.60;0.40;;;14.20;74.00;;;;;;2311672;56;20959;-68
2024/04/01 03:48:28;;;;;;;1.02;0.30;;;14.20;73.60;;;;;;2311333;56;21544;-67
2024/04/01 03:50:54;;;;;;;0.88;0.40;;;14.20;74.10;;;;;;2287463;56;20940;-67
2024/04/01 03:53:23;;;;;;;1.02;0.40;;;14.20;74.00;;;;;;2291059;55;21116;-67
2024/04/01 03:55:49;;;;;;;1.02;0.45;;;14.20;74.00;;;;;;2291186;55;21818;-67
2024/04/01 03:58:16;;;;;;;1.37;0.50;;;14.30;74.10;;;;;;2311336;56;20947;-68
2024/04/01 04:00:42;;;;;;;1.50;0.50;;;14.30;74.00;;;;;;2311274;56;21020;-68
2024/04/01 04:03:08;;;;;;;1.25;0.60;;;14.30;74.00;;;;;;2311374;55;21071;-67
2024/04/01 04:05:38;;;;;;;1.25;0.62;;;14.30;74.00;;;;;;2310907;55;21303;-67
2024/04/01 04:08:04;;;;;;;1.37;0.62;;;14.30;73.80;;;;;;2311620;55;21003;-68
2024/04/01 04:10:33;;;;;;;1.35;0.60;;;14.30;74.20;;;;;;2298375;55;21450;-69
2024/04/01 04:12:59;;;;;;;3.40;0.70;;;14.30;74.00;;;;;;2278292;56;20911;-67
2024/04/01 04:15:25;;;;;;;2.55;0.70;;;14.30;74.00;;;;;;2311113;55;21006;-67
2024/04/01 04:17:52;;;;;;;1.58;0.60;;;14.20;74.00;;;;;;2311778;56;21023;-67
2024/04/01 04:20:19;;;;;;;2.05;0.85;;;14.20;74.00;;;;;;2311274;56;21027;-67
2024/04/01 04:22:46;;;;;;;1.70;0.65;;;14.30;74.20;;;;;;2311435;56;21401;-69
2024/04/01 04:25:13;;;;;;;2.25;0.70;;;14.30;74.20;;;;;;2311248;55;21371;-68
2024/04/01 04:27:40;;;;;;;1.77;0.80;;;14.30;74.20;;;;;;2311198;56;20980;-68
2024/04/01 04:30:14;;;;;;;1.48;0.60;;;14.30;74.20;;;;;;2311348;56;20998;-68
2024/04/01 04:32:40;;;;;;;1.90;0.60;;;14.30;74.20;;;;;;2311037;56;20932;-67
2024/04/01 04:35:09;;;;;;;1.95;0.70;;;14.30;74.20;;;;;;2311438;55;21032;-67
2024/04/01 04:37:37;;;;;;;2.60;0.80;;;14.30;74.20;;;;;;2311011;55;21571;-68
2024/04/01 04:40:04;;;;;;;1.70;0.60;;;14.30;74.20;;;;;;2310855;55;20927;-68
2024/04/01 04:42:31;;;;;;;1.62;0.60;;;14.30;74.20;;;;;;2311003;56;21099;-68
2024/04/01 04:44:57;;;;;;;1.40;0.60;;;14.30;74.20;;;;;;2310938;55;20947;-69
2024/04/01 04:47:23;;;;;;;1.70;0.52;;;14.30;74.10;;;;;;2311821;56;21536;-69
2024/04/01 04:49:49;;;;;;;1.10;0.50;;;14.30;74.20;;;;;;2311235;55;21759;-67
2024/04/01 04:52:16;;;;;;;1.33;0.50;;;14.30;74.20;;;;;;2310964;56;21281;-69
2024/04/01 04:54:42;;;;;;;1.35;0.65;;;14.20;74.00;;;;;;2311353;55;20962;-68
2024/04/01 04:57:09;;;;;;;1.58;0.70;;;14.20;74.00;;;;;;2311069;56;20983;-69
2024/04/01 04:59:35;;;;;;;1.90;0.90;;;14.30;74.20;;;;;;2311042;55;20979;-69
2024/04/01 05:02:06;;;;;;;1.92;1.00;;;14.20;74.00;;;;;;2310913;55;21583;-69
2024/04/01 05:04:35;;;;;;;3.37;0.90;;;14.20;73.90;;;;;;2311295;56;21058;-68
2024/04/01 05:07:02;;;;;;;2.45;0.80;;;14.30;73.80;;;;;;2310976;56;21050;-67
2024/04/01 05:09:29;;;;;;;2.47;0.90;;;14.20;73.70;;;;;;2311204;56;21027;-70
2024/04/01 05:11:57;;;;;;;3.33;1.00;;;14.20;73.60;;;;;;2312340;56;21027;-69
2024/04/01 05:14:25;;;;;;;1.90;0.82;;;14.20;73.70;;;;;;2289989;55;21062;-68
2024/04/01 05:16:51;;;;;;;2.72;1.02;;;14.20;73.80;;;;;;2283422;55;21097;-70
2024/04/01 05:19:21;;;;;;;2.10;0.88;;;14.10;73.70;;;;;;2291501;55;21397;-67
2024/04/01 05:21:47;;;;;;;2.20;0.90;;;14.10;73.70;;;;;;2308568;56;21789;-69
2024/04/01 05:24:15;;;;;;;3.67;0.80;;;14.10;73.80;;;;;;2276726;56;21015;-67
2024/04/01 05:26:41;;;;;;;1.80;0.80;;;14.10;73.90;;;;;;2289432;56;21280;-70
2024/04/01 05:29:08;;;;;;;1.37;0.52;;;14.10;74.00;;;;;;2282243;56;21390;-70
2024/04/01 05:31:35;;;;;;;1.15;0.50;;;14.10;74.10;;;;;;2307842;56;21547;-68
2024/04/01 05:34:02;;;;;;;1.58;0.70;;;14.10;74.10;;;;;;2284148;55;20937;-69
2024/04/01 05:36:31;;;;;;;1.70;0.70;;;14.10;74.20;;;;;;2269303;56;21880;-70
2024/04/01 05:38:58;;;;;;;1.58;0.55;;;14.00;74.10;;;;;;2293104;56;21823;-70
2024/04/01 05:41:24;;;;;;;1.27;0.60;;;14.10;74.20;;;;;;2310560;55;20963;-68
2024/04/01 05:43:51;;;;;;;1.17;0.47;;;14.00;74.20;;;;;;2311001;56;20912;-70
2024/04/01 05:46:18;;;;;;;1.45;0.50;;;14.10;74.30;;;;;;2310952;55;21424;-68
2024/04/01 05:48:46;;;;;;;1.40;0.60;;;14.10;74.30;;;;;;2310954;56;21071;-67
2024/04/01 05:51:12;;;;;;;1.08;0.50;;;14.10;74.40;;;;;;2310868;55;21357;-68
2024/04/01 05:53:39;;;;;;;2.37;0.30;;;14.10;74.40;;;;;;2310636;55;21003;-68
2024/04/01 05:56:08;;;;;;;0.82;0.45;;;14.10;74.30;;;;;;2310633;56;21023;-69
2024/04/01 05:58:35;;;;;;;1.42;0.60;;;14.10;74.20;;;;;;2312035;55;20955;-68
2024/04/01 06:01:01;;;;;;;1.30;0.50;;;14.10;74.20;;;;;;2310609;55;21555;-69
2024/04/01 06:03:28;;;;;;;1.10;0.50;;;14.10;74.20;;;;;;2311407;55;21215;-70
2024/04/01 06:05:54;;;;;;;1.25;0.45;;;14.10;74.20;;;;;;2311065;55;20940;-69
2024/04/01 06:08:21;;;;;;;1.60;0.68;;;14.10;74.30;;;;;;2310866;55;21079;-70
2024/04/01 06:10:47;;;;;;;1.73;0.70;;;14.10;74.30;;;;;;2311532;56;21397;-69
2024/04/01 06:13:14;;;;;;;1.80;0.80;;;14.10;74.30;;;;;;2311098;55;21425;-69
2024/04/01 06:15:41;;;;;;;2.03;0.90;;;14.10;74.40;;;;;;2307965;55;21034;-68
2024/04/01 06:18:10;;;;;;;1.80;0.80;;;14.10;74.40;;;;;;2270222;56;21831;-68
2024/04/01 06:20:37;;;;;;;1.60;0.70;;;14.10;74.30;;;;;;2310438;56;20939;-68
2024/04/01 06:23:09;;;;;;;1.90;0.82;;;14.10;74.40;;;;;;2305415;56;21089;-69
2024/04/01 06:25:46;;;;;;;2.55;0.90;;;14.10;74.30;;;;;;2295329;55;21015;-68
2024/04/01 06:28:12;;;;;;;2.50;0.90;;;14.10;74.20;;;;;;2311091;55;21153;-69
2024/04/01 06:30:39;;;;;;;3.75;0.70;;;14.10;74.40;;;;;;2310731;55;21019;-68
2024/04/01 06:33:05;;;;;;;1.20;0.52;;;14.10;74.20;;;;;;2310380;55;22026;-68
2024/04/01 06:35:31;;;;;;;2.50;0.60;;;14.10;74.20;;;;;;2311134;56;21477;-70
2024/04/01 06:37:59;;;;;;;1.10;0.40;;;14.10;74.20;;;;;;2310410;55;21730;-69
2024/04/01 06:40:25;;;;;;;1.17;0.50;;;14.10;74.20;;;;;;2311035;55;21102;-70
2024/04/01 06:42:52;;;;;;;0.90;0.50;;;14.00;73.90;;;;;;2311158;56;21430;-68
2024/04/01 06:45:18;;;;;;;1.42;0.60;;;14.00;73.90;;;;;;2310908;56;20991;-69
2024/04/01 06:47:45;;;;;;;1.30;0.57;;;14.00;74.10;;;;;;2310433;55;20904;-69
2024/04/01 06:50:12;;;;;;;1.85;0.68;;;14.00;74.20;;;;;;2310924;56;21027;-70
2024/04/01 06:52:38;;;;;;;1.40;0.50;;;14.00;74.30;;;;;;2312533;55;20967;-69
2024/04/01 06:55:05;;;;;;;1.27;0.50;;;14.00;74.40;;;;;;2311633;55;20928;-69
2024/04/01 06:57:34;;;;;;;0.80;0.40;;;14.00;74.40;;;;;;2311402;55;21002;-69
2024/04/01 07:00:02;;;;;;;1.15;0.47;;;14.00;74.30;;;;;;2299229;55;20945;-71
2024/04/01 07:02:28;;;;;;;1.77;0.52;;;14.00;74.40;;;;;;2299512;56;21055;-69
2024/04/01 07:04:55;;;;;;;1.58;0.50;;;13.80;74.20;;;;;;2310273;56;21367;-69
2024/04/01 07:07:21;;;;;;;0.80;0.35;;;14.00;74.40;;;;;;2311188;56;20971;-69
2024/04/01 07:09:48;;;;;;;0.95;0.32;;;13.90;74.30;;;;;;2300680;55;21605;-70
2024/04/01 07:12:15;;;;;;;1.27;0.40;;;13.90;74.10;;;;;;2291062;55;21034;-70
2024/04/01 07:14:42;;;;;;;0.90;0.30;;;13.90;74.10;;;;;;2310957;56;21051;-70
2024/04/01 07:17:08;;;;;;;1.00;0.30;;;13.90;74.10;;;;;;2312717;55;20954;-71
2024/04/01 07:19:34;;;;;;;2.10;0.40;;;13.90;74.00;;;;;;2310615;55;21035;-72
2024/04/01 07:22:03;;;;;;;0.98;0.30;;;13.90;74.00;;;;;;2311196;56;20971;-69
2024/04/01 07:24:30;;;;;;;0.75;0.20;;;13.90;73.90;;;;;;2311374;56;21487;-70
2024/04/01 07:26:56;;;;;;;0.90;0.32;;;13.90;73.80;;;;;;2309975;55;21417;-70
2024/04/01 07:29:23;;;;;;;0.75;0.20;;;13.80;73.50;;;;;;2311494;56;21011;-69
2024/04/01 07:31:49;;;;;;;1.00;0.35;;;13.80;73.50;;;;;;2289786;55;20956;-69
2024/04/01 07:34:16;;;;;;;0.35;0.20;;;13.80;73.40;;;;;;2309555;55;21024;-69
2024/04/01 07:36:44;;;;;;;0.43;0.20;;;13.80;73.20;;;;;;2305657;55;21055;-70
2024/04/01 07:39:11;;;;;;;0.30;0.20;;;13.80;73.10;;;;;;2308614;55;21917;-70
2024/04/01 07:41:37;;;;;;;0.50;0.20;;;13.70;73.00;;;;;;2310710;56;21010;-70
2024/04/01 07:44:04;;;;;;;0.25;0.20;;;13.70;73.00;;;;;;2310887;56;20943;-70
2024/04/01 07:46:30;;;;;;;0.20;0.15;;;13.70;72.90;;;;;;2310950;56;21055;-71
2024/04/01 07:48:56;;;;;;;0.57;0.22;;;13.70;72.90;;;;;;2310815;55;21722;-71
2024/04/01 07:51:24;;;;;;;0.93;0.30;;;13.60;72.70;;;;;;2311396;56;20944;-73
2024/04/01 07:53:50;;;;;;;0.40;0.20;;;13.60;72.70;;;;;;2310836;55;21015;-69
2024/04/01 07:56:16;;;;;;;0.15;0.10;;;13.60;72.50;;;;;;2311015;55;20958;-70
2024/04/01 07:58:42;;;;;;;0.88;0.20;;;13.50;72.30;;;;;;2288379;56;21003;-70
2024/04/01 08:01:09;;;;;;;0.10;0.10;;;13.50;72.40;;;;;;2310989;56;21465;-71
2024/04/01 08:03:35;;;;;;;0.13;0.08;;;13.50;72.30;;;;;;2310660;56;20935;-69
2024/04/01 08:06:05;;;;;;;0.80;0.20;;;13.50;72.20;;;;;;2310936;56;20955;-70
2024/04/01 08:08:32;;;;;;;0.47;0.20;;;13.40;71.90;;;;;;2311105;56;21039;-69
2024/04/01 08:10:59;;;;;;;0.20;0.10;;;13.40;72.00;;;;;;2309964;55;20956;-71
2024/04/01 08:13:25;;;;;;;0.75;0.17;;;13.40;72.00;;;;;;2311832;55;20944;-70
2024/04/01 08:16:01;;;;;;;0.30;0.10;;;13.30;71.90;;;;;;2310772;56;21497;-68
2024/04/01 08:18:27;;;;;;;0.22;0.10;;;13.30;71.70;;;;;;2311155;55;20996;-68
2024/04/01 08:20:56;;;;;;;0.28;0.20;;;13.30;72.00;;;;;;2310750;55;21000;-69
2024/04/01 08:23:24;;;;;;;0.10;0.10;;;13.20;71.80;;;;;;2289493;56;21146;-70
2024/04/01 08:25:51;;;;;;;0.20;0.20;;;13.20;71.60;;;;;;2310227;56;20947;-72
2024/04/01 08:28:17;;;;;;;0.62;0.20;;;13.20;71.70;;;;;;2310931;55;21043;-69
2024/04/01 08:30:43;;;;;;;1.37;0.25;;;13.20;71.70;;;;;;2310523;56;21844;-69
2024/04/01 08:33:10;;;;;;;1.17;0.10;;;13.10;71.60;;;;;;2310629;56;20959;-69
2024/04/01 08:35:38;;;;;;;0.43;0.22;;;13.10;71.70;;;;;;2310665;56;21332;-71
2024/04/01 08:38:05;;;;;;;0.30;0.10;;;13.10;71.80;;;;;;2310809;55;21024;-69
2024/04/01 08:40:32;;;;;;;0.32;0.17;;;13.00;71.70;;;;;;2293715;56;20953;-69
2024/04/01 08:43:04;;;;;;;0.28;0.10;;;13.00;71.60;;;;;;2305277;56;20999;-70
2024/04/01 08:45:30;;;;;;;0.10;0.10;;;13.00;71.60;;;;;;2311055;56;21013;-68
2024/04/01 08:48:04;;;;;;;0.20;0.10;;;12.90;71.70;;;;;;2309704;56;20959;-68
2024/04/01 08:50:35;;;;;;;1.02;0.15;;;12.90;71.70;;;;;;2310984;55;21118;-69
2024/04/01 08:53:11;;;;;;;0.10;0.10;;;12.90;71.90;;;;;;2310328;56;21456;-70
2024/04/01 08:55:37;;;;;;;0.50;0.20;;;12.90;71.70;;;;;;2310496;56;20951;-70
2024/04/01 08:58:04;;;;;;;0.30;0.20;;;12.90;71.90;;;;;;2309648;56;20963;-69
2024/04/01 09:00:30;;;;;;;0.10;0.10;;;12.80;71.90;;;;;;2310814;55;21055;-69
2024/04/01 09:02:57;;;;;;;1.23;0.20;;;12.80;71.90;;;;;;2310200;55;20943;-69
2024/04/01 09:05:27;;;;;;;0.37;0.20;;;12.80;72.00;;;;;;2310944;56;20960;-68
2024/04/01 09:07:54;;;;;;;0.40;0.20;;;12.80;72.10;;;;;;2271553;55;21039;-70
2024/04/01 09:10:22;;;;;;;0.50;0.20;;;12.80;72.10;;;;;;2310283;56;21051;-69
2024/04/01 09:12:53;;;;;;;0.82;0.20;;;12.80;72.10;;;;;;2310364;56;20987;-70
2024/04/01 09:15:22;;;;;;;0.30;0.17;;;12.80;72.00;;;;;;2310765;55;21034;-70
2024/04/01 09:17:51;;;;;;;0.98;0.20;;;12.80;72.00;;;;;;2286722;55;20945;-70
2024/04/01 09:20:17;;;;;;;0.55;0.20;;;12.70;71.80;;;;;;2310890;55;21034;-69
2024/04/01 09:22:44;;;;;;;0.47;0.25;;;12.70;71.90;;;;;;2310463;55;20971;-69
2024/04/01 09:25:10;;;;;;;0.47;0.20;;;12.70;71.90;;;;;;2337125;54;2260355;-68
2024/04/01 09:27:36;;;;;;;0.20;0.20;;;12.70;72.10;;;;;;2286463;55;20940;-71
2024/04/01 09:30:03;;;;;;;0.62;0.25;;;12.60;72.10;;;;;;2310507;56;20968;-71
2024/04/01 09:32:32;;;;;;;1.00;0.30;;;12.60;72.10;;;;;;2311201;55;21031;-69
2024/04/01 09:34:59;;;;;;;0.62;0.25;;;12.70;72.30;;;;;;2311363;55;21312;-69
2024/04/01 09:37:25;;;;;;;0.82;0.20;;;12.60;72.10;;;;;;2311866;55;21018;-71
2024/04/01 09:39:54;;;;;;;0.28;0.20;;;12.60;72.20;;;;;;2310957;55;21074;-69
2024/04/01 09:42:22;;;;;;;0.37;0.20;;;12.50;72.20;;;;;;2311175;56;20967;-69
2024/04/01 09:44:48;;;;;;;0.52;0.25;;;12.50;72.50;;;;;;2310173;55;21074;-69
2024/04/01 09:47:15;;;;;;;0.75;0.30;;;12.50;72.40;;;;;;2310799;55;20964;-69
2024/04/01 09:49:41;;;;;;;0.45;0.20;;;12.50;72.60;;;;;;2310800;56;20940;-70
2024/04/01 09:52:07;;;;;;;1.02;0.40;;;12.50;72.80;;;;;;2311185;55;20963;-71
2024/04/01 09:54:34;;;;;;;1.25;0.37;;;12.50;73.00;;;;;;2310527;56;21028;-69
2024/04/01 09:57:38;;;;;;;0.57;0.30;;;12.50;73.10;;;;;;2310566;56;21022;-69
2024/04/01 10:00:14;;;;;;;0.62;0.30;;;12.50;73.00;;;;;;2310726;55;21201;-69
2024/04/01 10:07:31;;;;;;;0.57;0.30;;;12.50;73.30;;;;;;2312942;55;20976;-72
2024/04/01 10:18:38;;;;;;;0.55;0.22;;;12.60;72.60;;;;;;2291641;54;21048;-70
2024/04/01 10:22:11;;;;;;;2.33;0.80;;;12.60;72.50;;;;;;2311622;55;20951;-69
2024/04/01 10:27:21;;;;;;;4.10;1.33;;;12.70;72.20;;;;;;2311003;55;21259;-70
2024/04/01 10:30:53;;;;;;;2.67;1.05;;;12.60;71.90;;;;;;2310109;56;20975;-68
2024/04/01 10:34:24;;;;;;;1.65;0.70;;;12.60;72.00;;;;;;2310820;56;21019;-71
2024/04/01 10:42:41;;;;;;;2.12;0.90;;;12.60;72.30;;;;;;2302530;55;21239;-69
2024/04/01 10:50:21;;;;;;;1.45;0.40;;;12.60;71.90;;;;;;2310009;56;21008;-70
2024/04/01 10:53:24;;;;;;;0.90;0.40;;;12.60;71.70;;;;;;2310438;56;20936;-69
2024/04/01 10:56:08;;;;;;;;;;;12.60;72.20;;;;;;2314366;56;20967;-71
2024/04/01 10:59:05;;;;;;;1.02;0.35;;;12.60;71.80;;;;;;2311113;56;20064;-69
2024/04/01 11:04:47;;;;;;;0.95;0.43;;;12.60;73.30;;;;;;2270118;56;20980;-69
2024/04/01 11:11:01;;;;;;;0.60;0.40;;;12.60;72.60;;;;;;2310258;56;21779;-69
2024/04/01 11:13:28;;;;;;;0.75;0.30;;;12.70;72.50;;;;;;2310209;56;21453;-69
2024/04/01 11:15:55;;;;;;;1.33;0.50;;;12.70;73.50;;;;;;2310625;56;21023;-69
2024/04/01 11:21:56;;;;;;;1.10;0.60;;;12.80;73.70;;;;;;2311450;55;21019;-71
2024/04/01 11:25:01;;;;;;;0.65;0.22;;;12.90;73.00;;;;;;2311874;56;21082;-69
2024/04/01 11:29:15;;;;;;;0.85;0.40;;;12.90;73.50;;;;;;2310949;56;20956;-68
2024/04/01 11:31:56;;;;;;;0.73;0.40;;;12.90;73.50;;;;;;2311484;55;20983;-70
2024/04/01 11:37:19;;;;;;;1.05;0.50;;;13.00;73.80;;;;;;2311352;56;21066;-69
2024/04/01 11:39:48;;;;;;;0.65;0.30;;;13.00;73.30;;;;;;2311234;55;21683;-71
2024/04/01 11:42:18;;;;;;;1.03;0.50;;;13.10;73.80;;;;;;2311275;56;20995;-69
2024/04/01 11:44:44;;;;;;;0.93;0.55;;;13.10;73.70;;;;;;2311679;55;21260;-70
2024/04/01 11:47:11;;;;;;;0.90;0.50;;;13.20;73.80;;;;;;2310326;55;20963;-71
2024/04/01 11:49:40;;;;;;;2.15;0.70;;;13.20;73.70;;;;;;2311142;55;21252;-69
2024/04/01 11:52:18;;;;;;;2.10;0.52;;;13.20;73.50;;;;;;2310765;56;21319;-70
2024/04/01 11:54:44;;;;;;;0.82;0.40;;;13.20;73.40;;;;;;2311087;55;21331;-69
2024/04/01 11:57:23;;;;;;;1.02;0.40;;;13.30;73.90;;;;;;2310891;56;20999;-71
2024/04/01 11:59:49;;;;;;;0.80;0.30;;;13.30;73.30;;;;;;2310858;55;21107;-70
2024/04/01 12:02:18;;;;;;;0.45;0.30;;;13.30;73.60;;;;;;2309343;56;20992;-70
2024/04/01 12:04:45;;;;;;;0.82;0.30;;;13.40;73.90;;;;;;2311173;56;21011;-69
2024/04/01 12:07:11;;;;;;;1.17;0.40;;;13.40;73.90;;;;;;2291618;55;20965;-71
2024/04/01 12:09:39;;;;;;;1.17;0.37;;;13.40;73.90;;;;;;2305930;56;21023;-70
2024/04/01 12:12:09;;;;;;;0.55;0.30;;;13.50;73.90;;;;;;2310606;56;20947;-71
2024/04/01 12:14:38;;;;;;;0.50;0.28;;;13.50;73.80;;;;;;2311203;56;21361;-71
2024/04/01 12:17:07;;;;;;;1.42;0.40;;;13.50;73.70;;;;;;2287792;55;20983;-69
2024/04/01 12:19:39;;;;;;;0.93;0.40;;;13.50;73.40;;;;;;2311398;55;21031;-70
2024/04/01 12:22:05;;;;;;;;;;;13.60;73.10;;;;;;2257243;56;21315;-69
2024/04/01 12:24:31;;;;;;;2.83;0.50;;;13.60;72.20;;;;;;2290427;55;20147;-71
2024/04/01 12:27:01;;;;;;;1.48;0.60;;;13.70;73.50;;;;;;2305793;55;20948;-70
2024/04/01 12:29:27;;;;;;;0.80;0.40;;;13.70;73.40;;;;;;2306415;55;20974;-71
2024/04/01 12:31:54;;;;;;;0.80;0.40;;;13.70;73.50;;;;;;2304649;55;21248;-69
2024/04/01 12:34:23;;;;;;;0.62;0.30;;;13.70;73.50;;;;;;2305385;55;21283;-71
2024/04/01 12:36:49;;;;;;;0.90;0.40;;;13.70;73.60;;;;;;2279431;55;21045;-69
2024/04/01 12:39:16;;;;;;;1.77;0.50;;;13.80;73.80;;;;;;2305302;55;20962;-69
2024/04/01 12:41:46;;;;;;;3.40;1.12;;;13.80;73.90;;;;;;2306562;55;20944;-70
2024/04/01 12:44:16;;;;;;;3.35;1.50;;;13.80;73.90;;;;;;2306824;55;21271;-69
2024/04/01 12:46:46;;;;;;;2.60;1.10;;;13.80;74.20;;;;;;2308082;55;21804;-70
2024/04/01 12:49:12;;;;;;;1.87;0.60;;;13.90;74.40;;;;;;2294914;55;20937;-69
2024/04/01 12:51:46;;;;;;;1.02;0.47;;;13.90;74.60;;;;;;2290490;55;20971;-71
2024/04/01 12:56:57;;;;;;;1.48;0.57;;;14.00;74.80;;;;;;2279034;56;21064;-70
2024/04/01 13:00:47;;;;;;;1.08;0.40;;;14.10;74.60;;;;;;2306293;55;21700;-69
2024/04/01 13:03:42;;;;;;;0.85;0.30;;;14.20;73.40;;;;;;2305780;55;21500;-70
2024/04/01 13:08:10;;;;;;;0.98;0.40;;;14.20;73.90;;;;;;2305634;55;20928;-71
2024/04/01 13:12:22;;;;;;;0.65;0.30;;;14.30;73.30;;;;;;2291112;55;21044;-70
2024/04/01 13:15:11;;;;;;;1.15;0.40;;;14.40;73.30;;;;;;2305614;55;20976;-71
2024/04/01 13:17:52;;;;;;;1.23;0.40;;;14.40;72.90;;;;;;2305455;55;21752;-72
2024/04/01 13:22:15;;;;;;;1.23;0.50;;;14.40;73.00;;;;;;2280625;55;21264;-72
2024/04/01 13:24:45;;;;;;;0.35;0.28;;;14.40;72.90;;;;;;2279861;55;21042;-70
2024/04/01 13:27:52;;;;;;;0.95;0.40;;;14.40;73.00;;;;;;2289540;55;21383;-70
2024/04/01 13:30:34;;;;;;;0.65;0.30;;;14.40;72.70;;;;;;2282547;55;20954;-71
2024/04/01 13:33:03;;;;;;;1.37;0.45;;;14.40;72.70;;;;;;2279987;55;21037;-70
2024/04/01 13:36:07;;;;;;;0.98;0.32;;;14.40;72.70;;;;;;2280255;55;22190;-70
2024/04/01 13:39:23;;;;;;;;;;;14.40;72.10;;;;;;2283292;55;20946;-69
2024/04/01 13:42:01;;;;;;;0.88;0.30;;;14.40;71.70;;;;;;2275657;55;20390;-70
2024/04/01 13:44:56;;;;;;;1.05;0.30;;;14.40;72.60;;;;;;2280331;55;20965;-71
2024/04/01 13:47:55;;;;;;;0.55;0.25;;;14.40;72.10;;;;;;2279812;55;21017;-69
2024/04/01 13:50:46;;;;;;;0.68;0.30;;;14.40;72.30;;;;;;2278630;55;20982;-71
2024/04/01 13:53:33;;;;;;;2.10;0.55;;;14.40;72.50;;;;;;2278942;55;21033;-72